createdAt,value
2023-05-24T00:01:19.839Z,101202.94
2023-05-24T00:03:51.788Z,101207.03
2023-05-24T00:06:23.365Z,101198.03
2023-05-24T00:08:55.289Z,101206.84
2023-05-24T00:11:26.774Z,101202.94
2023-05-24T00:13:58.276Z,101206.41
2023-05-24T00:16:29.852Z,101208.88
2023-05-24T00:19:01.638Z,101218.50
2023-05-24T00:21:33.138Z,101213.59
2023-05-24T00:24:04.973Z,101012.66
2023-05-24T00:26:36.473Z,101217.88
2023-05-24T00:29:07.963Z,101218.72
2023-05-24T00:31:39.563Z,101219.94
2023-05-24T00:34:11.123Z,101219.75
2023-05-24T00:36:42.966Z,101219.53
2023-05-24T00:39:14.447Z,101216.88
2023-05-24T00:41:45.963Z,101220.56
2023-05-24T00:44:17.477Z,101217.91
2023-05-24T00:46:49.138Z,101216.06
2023-05-24T00:49:20.627Z,101217.47
2023-05-24T00:51:52.520Z,101222.41
2023-05-24T00:54:24.004Z,101215.03
2023-05-24T00:56:55.583Z,101216.06
2023-05-24T00:59:27.326Z,101210.75
2023-05-24T01:01:58.970Z,101211.34
2023-05-24T01:04:30.987Z,101209.09
2023-05-24T01:07:02.514Z,101216.88
2023-05-24T01:09:34.015Z,101215.66
2023-05-24T01:12:05.504Z,101216.47
2023-05-24T01:14:37.007Z,101208.50
2023-05-24T01:17:08.489Z,101215.25
2023-05-24T01:19:39.990Z,101215.66
2023-05-24T01:22:11.475Z,101215.03
2023-05-24T01:24:43.303Z,101222.00
2023-05-24T01:27:14.966Z,101218.53
2023-05-24T01:29:46.834Z,101217.09
2023-05-24T01:32:18.547Z,101217.72
2023-05-24T01:34:50.022Z,101223.44
2023-05-24T01:37:21.822Z,101230.41
2023-05-24T01:39:53.318Z,101227.53
2023-05-24T01:42:25.194Z,101229.59
2023-05-24T01:44:56.731Z,101234.94
2023-05-24T01:47:28.288Z,101227.56
2023-05-24T01:49:59.825Z,101237.41
2023-05-24T01:52:31.646Z,101233.72
2023-05-24T01:55:03.581Z,101236.59
2023-05-24T01:57:35.092Z,101235.78
2023-05-24T02:00:06.896Z,101230.03
2023-05-24T02:02:38.428Z,101225.97
2023-05-24T02:05:10.326Z,101229.63
2023-05-24T02:07:41.805Z,101231.28
2023-05-24T02:10:13.701Z,101239.88
2023-05-24T02:12:45.184Z,101241.53
2023-05-24T02:15:16.871Z,101049.88
2023-05-24T02:17:48.499Z,101233.31
2023-05-24T02:20:20.486Z,101232.50
2023-05-24T02:22:52.038Z,101228.63
2023-05-24T02:25:24.062Z,101234.34
2023-05-24T02:27:55.892Z,101228.63
2023-05-24T02:30:27.783Z,101231.69
2023-05-24T02:32:59.724Z,101227.81
2023-05-24T02:35:31.247Z,101229.25
2023-05-24T02:38:03.072Z,101231.91
2023-05-24T02:40:34.548Z,101231.91
2023-05-24T02:43:06.437Z,101231.09
2023-05-24T02:45:37.928Z,101225.72
2023-05-24T02:48:09.747Z,101230.25
2023-05-24T02:50:41.370Z,101221.63
2023-05-24T02:53:13.032Z,101222.25
2023-05-24T02:55:44.507Z,101234.53
2023-05-24T02:58:16.230Z,101230.84
2023-05-24T03:00:47.720Z,101234.13
2023-05-24T03:03:19.286Z,101232.88
2023-05-24T03:05:51.235Z,101234.94
2023-05-24T03:08:22.716Z,101238.66
2023-05-24T03:10:54.206Z,101236.19
2023-05-24T03:13:25.688Z,101240.28
2023-05-24T03:15:57.508Z,101242.13
2023-05-24T03:18:29.034Z,101238.66
2023-05-24T03:21:00.882Z,101239.25
2023-05-24T03:23:32.386Z,101237.81
2023-05-24T03:26:03.896Z,101234.50
2023-05-24T03:28:35.397Z,101244.38
2023-05-24T03:31:07.405Z,101243.56
2023-05-24T03:33:38.885Z,101237.00
2023-05-24T03:36:10.364Z,101239.88
2023-05-24T03:38:42.242Z,101240.91
2023-05-24T03:41:13.714Z,101241.97
2023-05-24T03:43:45.226Z,101242.34
2023-05-24T03:46:16.782Z,101241.31
2023-05-24T03:48:48.639Z,101240.28
2023-05-24T03:51:20.115Z,101249.31
2023-05-24T03:53:51.884Z,101256.31
2023-05-24T03:56:23.369Z,101263.47
2023-05-24T03:58:55.138Z,101256.31
2023-05-24T04:01:33.246Z,101256.50
2023-05-24T04:04:06.085Z,101254.88
2023-05-24T04:06:37.585Z,101262.03
2023-05-24T04:09:09.314Z,101257.13
2023-05-24T04:11:40.791Z,101254.69
2023-05-24T04:14:12.303Z,101258.38
2023-05-24T04:16:43.825Z,101253.25
2023-05-24T04:19:15.694Z,101253.03
2023-05-24T04:21:47.607Z,101264.09
2023-05-24T04:24:19.713Z,101263.28
2023-05-24T04:26:51.878Z,101264.09
2023-05-24T04:29:23.516Z,101268.38
2023-05-24T04:31:55.402Z,101262.03
2023-05-24T04:34:26.958Z,101266.97
2023-05-24T04:36:58.839Z,101266.34
2023-05-24T04:39:30.376Z,101266.94
2023-05-24T04:42:02.200Z,101268.59
2023-05-24T04:44:33.699Z,101262.44
2023-05-24T04:47:05.629Z,101266.34
2023-05-24T04:49:37.151Z,101267.13
2023-05-24T04:52:08.863Z,101275.56
2023-05-24T04:54:40.402Z,101277.19
2023-05-24T04:57:12.219Z,101284.16
2023-05-24T04:59:44.003Z,101286.19
2023-05-24T05:02:15.525Z,101299.13
2023-05-24T05:04:47.111Z,101295.63
2023-05-24T05:07:18.595Z,101303.88
2023-05-24T05:09:50.262Z,101297.31
2023-05-24T05:12:21.751Z,101300.19
2023-05-24T05:14:53.585Z,101302.63
2023-05-24T05:17:25.065Z,101302.63
2023-05-24T05:19:56.818Z,101308.41
2023-05-24T05:22:30.100Z,101309.19
2023-05-24T05:25:02.789Z,101319.00
2023-05-24T05:27:34.335Z,101320.03
2023-05-24T05:30:06.121Z,101318.41
2023-05-24T05:32:37.836Z,101322.25
2023-05-24T05:35:09.429Z,101331.28
2023-05-24T05:37:40.936Z,101325.13
2023-05-24T05:40:12.415Z,101331.66
2023-05-24T05:42:43.926Z,101333.63
2023-05-24T05:45:15.464Z,101331.13
2023-05-24T05:47:47.293Z,101336.88
2023-05-24T05:50:18.842Z,101336.72
2023-05-24T05:52:50.824Z,101350.50
2023-05-24T05:55:22.399Z,101344.75
2023-05-24T05:57:54.240Z,101343.88
2023-05-24T06:00:25.741Z,101340.19
2023-05-24T06:02:57.627Z,101357.16
2023-05-24T06:05:29.589Z,101349.38
2023-05-24T06:08:01.064Z,101349.75
2023-05-24T06:10:33.005Z,101347.72
2023-05-24T06:13:04.514Z,101352.28
2023-05-24T06:15:36.026Z,101358.19
2023-05-24T06:18:07.536Z,101360.03
2023-05-24T06:20:39.094Z,101360.22
2023-05-24T06:23:10.609Z,101357.38
2023-05-24T06:25:42.484Z,101348.16
2023-05-24T06:28:13.984Z,101369.00
2023-05-24T06:30:46.362Z,101363.69
2023-05-24T06:33:18.265Z,101357.94
2023-05-24T06:35:49.790Z,101357.13
2023-05-24T06:38:21.308Z,101362.00
2023-05-24T06:40:52.796Z,101372.47
2023-05-24T06:43:24.712Z,101373.41
2023-05-24T06:45:56.203Z,101380.63
2023-05-24T06:48:28.074Z,101381.38
2023-05-24T06:50:59.776Z,101389.97
2023-05-24T06:53:31.741Z,101387.13
2023-05-24T06:56:03.234Z,101393.19
2023-05-24T06:58:34.749Z,101394.59
2023-05-24T07:01:06.749Z,101392.16
2023-05-24T07:03:38.292Z,101396.47
2023-05-24T07:06:09.821Z,101398.75
2023-05-24T07:08:41.325Z,101397.00
2023-05-24T07:11:13.046Z,101401.84
2023-05-24T07:13:44.556Z,101392.16
2023-05-24T07:16:16.607Z,101394.44
2023-05-24T07:18:48.127Z,101405.19
2023-05-24T07:21:19.876Z,101398.31
2023-05-24T07:23:51.370Z,101411.47
2023-05-24T07:26:23.405Z,101418.25
2023-05-24T07:28:54.906Z,101418.88
2023-05-24T07:31:26.733Z,101411.31
2023-05-24T07:33:58.262Z,101410.66
2023-05-24T07:36:31.603Z,101418.84
2023-05-24T07:39:06.030Z,101418.25
2023-05-24T07:41:37.541Z,101425.91
2023-05-24T07:44:09.243Z,101410.59
2023-05-24T07:46:40.771Z,101427.09
2023-05-24T07:49:12.588Z,101435.41
2023-05-24T07:51:44.121Z,101421.44
2023-05-24T07:54:15.936Z,101437.44
2023-05-24T07:56:47.428Z,101428.59
2023-05-24T07:59:19.203Z,101431.78
2023-05-24T08:01:50.692Z,101443.19
2023-05-24T08:04:22.199Z,101437.03
2023-05-24T08:06:54.141Z,101440.22
2023-05-24T08:09:26.159Z,101436.16
2023-05-24T08:11:57.669Z,101450.06
2023-05-24T08:14:29.145Z,101455.47
2023-05-24T08:17:01.019Z,101446.69
2023-05-24T08:19:32.562Z,101448.19
2023-05-24T08:22:04.263Z,101451.53
2023-05-24T08:24:35.750Z,101445.63
2023-05-24T08:27:07.689Z,101441.22
2023-05-24T08:29:39.187Z,101447.38
2023-05-24T08:32:10.724Z,101459.53
2023-05-24T08:34:42.318Z,101450.13
2023-05-24T08:37:15.539Z,101453.41
2023-05-24T08:39:48.032Z,101457.38
2023-05-24T08:42:19.776Z,101455.78
2023-05-24T08:44:51.464Z,101452.91
2023-05-24T08:47:22.981Z,101459.28
2023-05-24T08:49:54.503Z,101442.09
2023-05-24T08:52:25.986Z,101432.91
2023-05-24T08:54:57.501Z,101437.63
2023-05-24T08:57:29.004Z,101451.72
2023-05-24T09:00:00.528Z,101438.19
2023-05-24T09:02:32.029Z,101464.91
2023-05-24T09:05:04.289Z,101435.63
2023-05-24T09:07:35.782Z,101441.97
2023-05-24T09:10:07.605Z,101415.19
2023-05-24T09:12:39.589Z,101413.22
2023-05-24T09:15:11.358Z,101428.47
2023-05-24T09:17:43.323Z,101421.13
2023-05-24T09:20:14.978Z,101429.31
2023-05-24T09:22:46.642Z,101447.44
2023-05-24T09:25:18.135Z,101446.53
2023-05-24T09:27:50.084Z,101422.63
2023-05-24T09:30:21.585Z,101406.59
2023-05-24T09:32:53.197Z,101415.91
2023-05-24T09:35:24.715Z,101424.59
2023-05-24T09:37:56.756Z,101417.63
2023-05-24T09:40:28.558Z,101406.44
2023-05-24T09:43:00.032Z,101410.09
2023-05-24T09:45:31.896Z,101395.25
2023-05-24T09:48:03.433Z,101394.69
2023-05-24T09:50:34.987Z,101394.44
2023-05-24T09:53:06.465Z,101414.75
2023-05-24T09:55:38.481Z,101414.03
2023-05-24T09:58:09.990Z,101451.47
2023-05-24T10:00:42.294Z,101457.38
2023-05-24T10:03:14.326Z,101489.44
2023-05-24T10:05:46.193Z,101454.69
2023-05-24T10:08:18.138Z,101462.75
2023-05-24T10:10:50.143Z,101476.41
2023-05-24T10:13:21.820Z,101455.25
2023-05-24T10:15:53.312Z,101496.63
2023-05-24T10:18:25.157Z,101491.03
2023-05-24T10:20:56.749Z,101479.66
2023-05-24T10:23:28.788Z,101458.44
2023-05-24T10:26:00.359Z,101472.09
2023-05-24T10:28:32.341Z,101463.75
2023-05-24T10:31:04.046Z,101449.84
2023-05-24T10:33:35.669Z,101423.09
2023-05-24T10:36:09.433Z,101396.59
2023-05-24T10:38:41.349Z,101394.91
2023-05-24T10:41:13.190Z,101403.69
2023-05-24T10:43:53.459Z,101438.38
2023-05-24T10:46:33.088Z,101469.28
2023-05-24T10:49:04.675Z,101476.16
2023-05-24T10:51:36.187Z,101490.25
2023-05-24T10:54:09.062Z,101497.34
2023-05-24T10:56:40.724Z,101506.38
2023-05-24T10:59:12.234Z,101500.50
2023-05-24T11:01:44.136Z,101516.72
2023-05-24T11:04:15.683Z,101500.75
2023-05-24T11:06:47.224Z,101455.75
2023-05-24T11:09:18.993Z,101475.34
2023-05-24T11:11:50.516Z,101466.38
2023-05-24T11:14:22.038Z,101456.09
2023-05-24T11:16:53.630Z,101472.41
2023-05-24T11:19:25.202Z,101459.59
2023-05-24T11:21:56.691Z,101448.13
2023-05-24T11:24:28.534Z,101394.22
2023-05-24T11:27:00.023Z,101367.06
2023-05-24T11:29:31.919Z,101385.94
2023-05-24T11:32:03.841Z,101363.97
2023-05-24T11:34:35.664Z,101346.41
2023-05-24T11:37:07.516Z,101373.91
2023-05-24T11:39:39.009Z,101346.41
2023-05-24T11:42:10.856Z,101348.25
2023-05-24T11:44:42.702Z,101347.03
2023-05-24T11:47:14.551Z,101345.00
2023-05-24T11:49:46.508Z,101363.75
2023-05-24T11:52:17.998Z,101370.44
2023-05-24T11:54:49.888Z,101384.25
2023-05-24T11:57:21.384Z,101399.97
2023-05-24T11:59:52.883Z,101390.47
2023-05-24T12:02:24.476Z,101420.28
2023-05-24T12:04:56.497Z,101432.50
2023-05-24T12:07:27.999Z,101421.75
2023-05-24T12:09:59.811Z,101398.75
2023-05-24T12:12:38.721Z,101396.47
2023-05-24T12:15:17.300Z,101395.19
2023-05-24T12:17:49.154Z,101381.31
2023-05-24T12:20:20.736Z,101352.41
2023-05-24T12:22:52.910Z,101343.34
2023-05-24T12:25:24.415Z,101307.25
2023-05-24T12:27:56.433Z,101307.50
2023-05-24T12:30:27.936Z,101310.06
2023-05-24T12:33:01.330Z,101312.78
2023-05-24T12:35:32.873Z,101360.66
2023-05-24T12:38:04.845Z,101376.50
2023-05-24T12:40:36.341Z,101392.75
2023-05-24T12:43:08.105Z,101372.19
2023-05-24T12:45:39.617Z,101396.75
2023-05-24T12:48:11.492Z,101419.25
2023-05-24T12:50:43.662Z,101435.16
2023-05-24T12:53:15.379Z,101436.66
2023-05-24T12:55:46.895Z,101433.44
2023-05-24T12:58:18.395Z,101446.50
2023-05-24T13:00:50.023Z,101446.75
2023-05-24T13:03:21.662Z,101446.94
2023-05-24T13:05:53.723Z,101429.91
2023-05-24T13:08:25.268Z,101411.75
2023-05-24T13:10:56.933Z,101406.63
2023-05-24T13:13:28.458Z,101395.72
2023-05-24T13:16:00.242Z,101380.91
2023-05-24T13:18:32.002Z,101372.78
2023-05-24T13:21:03.491Z,101369.75
2023-05-24T13:23:34.986Z,101373.94
2023-05-24T13:26:06.503Z,101356.53
2023-05-24T13:28:40.491Z,101341.75
2023-05-24T13:31:17.333Z,101372.88
2023-05-24T13:33:49.054Z,101352.59
2023-05-24T13:36:20.526Z,101354.81
2023-05-24T13:39:02.339Z,101387.13
2023-05-24T13:41:44.349Z,101382.56
2023-05-24T13:44:16.086Z,101400.88
2023-05-24T13:46:47.986Z,101393.38
2023-05-24T13:49:19.550Z,101405.78
2023-05-24T13:51:51.427Z,101398.25
2023-05-24T13:54:22.908Z,101401.53
2023-05-24T13:56:54.748Z,101427.41
2023-05-24T13:59:26.246Z,101439.88
2023-05-24T14:01:57.991Z,101466.19
2023-05-24T14:04:29.505Z,101469.34
2023-05-24T14:07:01.550Z,101462.81
2023-05-24T14:09:33.387Z,101470.66
2023-05-24T14:12:05.234Z,101455.88
2023-05-24T14:14:59.411Z,101428.38
2023-05-24T14:17:28.214Z,101342.00
2023-05-24T14:20:00.226Z,101335.50
2023-05-24T14:22:31.790Z,101311.59
2023-05-24T14:25:03.677Z,101262.25
2023-05-24T14:27:35.154Z,101286.22
2023-05-24T14:30:06.976Z,101281.44
2023-05-24T14:32:38.523Z,101281.84
2023-05-24T14:35:10.404Z,101253.69
2023-05-24T14:37:42.246Z,101234.59
2023-05-24T14:40:13.795Z,101261.16
2023-05-24T14:42:45.372Z,101255.31
2023-05-24T14:45:16.893Z,101253.63
2023-05-24T14:47:48.772Z,101259.59
2023-05-24T14:50:20.282Z,101263.63
2023-05-24T14:52:53.718Z,101231.81
2023-05-24T14:55:26.755Z,101238.91
2023-05-24T14:57:58.613Z,101249.25
2023-05-24T15:00:30.131Z,101199.09
2023-05-24T15:03:01.971Z,101206.50
2023-05-24T15:05:33.546Z,101201.22
2023-05-24T15:08:05.222Z,101180.66
2023-05-24T15:10:36.748Z,101202.31
2023-05-24T15:13:08.268Z,101197.13
2023-05-24T15:15:39.771Z,101217.78
2023-05-24T15:18:11.265Z,101187.25
2023-05-24T15:20:43.413Z,101187.06
2023-05-24T15:23:15.191Z,101187.94
2023-05-24T15:25:47.177Z,101172.63
2023-05-24T15:28:18.761Z,101195.06
2023-05-24T15:30:50.339Z,101228.69
2023-05-24T15:33:21.914Z,101281.66
2023-05-24T15:35:53.451Z,101248.09
2023-05-24T15:38:25.260Z,101254.56
2023-05-24T15:40:57.167Z,101240.69
2023-05-24T15:43:28.909Z,101239.00
2023-05-24T15:46:00.404Z,101261.44
2023-05-24T15:48:32.320Z,101265.06
2023-05-24T15:51:58.046Z,101255.44
2023-05-24T15:53:55.280Z,101251.34
2023-05-24T15:56:26.787Z,101237.50
2023-05-24T15:58:58.309Z,101248.63
2023-05-24T16:01:29.839Z,101268.38
2023-05-24T16:04:01.428Z,101277.63
2023-05-24T16:06:33.114Z,101266.53
2023-05-24T16:09:04.636Z,101283.19
2023-05-24T16:11:36.151Z,101296.88
2023-05-24T16:14:07.639Z,101320.53
2023-05-24T16:16:39.324Z,101350.47
2023-05-24T16:19:10.850Z,101358.59
2023-05-24T16:21:42.676Z,101375.28
2023-05-24T16:24:14.211Z,101396.06
2023-05-24T16:26:45.726Z,101420.81
2023-05-24T16:29:17.222Z,101435.47
2023-05-24T16:31:49.099Z,101468.50
2023-05-24T16:34:20.665Z,101478.69
2023-05-24T16:36:52.202Z,101498.16
2023-05-24T16:39:23.700Z,101497.84
2023-05-24T16:41:55.461Z,101478.13
2023-05-24T16:44:26.966Z,101466.16
2023-05-24T16:46:58.770Z,101471.72
2023-05-24T16:49:30.646Z,101480.09
2023-05-24T16:52:02.136Z,101490.75
2023-05-24T16:54:33.643Z,101486.03
2023-05-24T16:57:05.166Z,101497.38
2023-05-24T16:59:36.691Z,101510.47
2023-05-24T17:02:08.174Z,101508.66
2023-05-24T17:04:39.709Z,101521.91
2023-05-24T17:07:11.215Z,101519.63
2023-05-24T17:09:42.994Z,101530.22
2023-05-24T17:12:14.488Z,101527.94
2023-05-24T17:14:46.326Z,101520.44
2023-05-24T17:17:18.149Z,101525.25
2023-05-24T17:19:49.695Z,101538.72
2023-05-24T17:22:21.594Z,101522.47
2023-05-24T17:24:53.092Z,101546.69
2023-05-24T17:27:24.940Z,101545.44
2023-05-24T17:29:56.436Z,101551.22
2023-05-24T17:32:28.140Z,101550.91
2023-05-24T17:34:59.674Z,101561.91
2023-05-24T17:37:31.180Z,101565.69
2023-05-24T17:40:02.665Z,101569.19
2023-05-24T17:42:34.148Z,101548.91
2023-05-24T17:45:05.689Z,101345.41
2023-05-24T17:47:37.211Z,101552.22
2023-05-24T17:50:09.199Z,101542.19
2023-05-24T17:52:40.696Z,101556.47
2023-05-24T17:55:12.215Z,101554.81
2023-05-24T17:57:43.706Z,101555.56
2023-05-24T18:00:15.420Z,101562.03
2023-05-24T18:02:47.582Z,101569.03
2023-05-24T18:05:19.871Z,101566.47
2023-05-24T18:07:51.404Z,101562.63
2023-05-24T18:10:23.331Z,101562.72
2023-05-24T18:12:54.864Z,101557.38
2023-05-24T18:15:26.715Z,101554.22
2023-05-24T18:17:58.247Z,101554.09
2023-05-24T18:20:30.007Z,101562.81
2023-05-24T18:23:01.915Z,101570.97
2023-05-24T18:25:33.691Z,101562.78
2023-05-24T18:28:05.490Z,101573.84
2023-05-24T18:30:37.001Z,101567.91
2023-05-24T18:33:08.931Z,101556.56
2023-05-24T18:35:40.716Z,101556.19
2023-05-24T18:38:12.642Z,101565.16
2023-05-24T18:40:44.153Z,101556.97
2023-05-24T18:43:16.007Z,101559.41
2023-05-24T18:45:47.523Z,101573.59
2023-05-24T18:48:19.425Z,101564.97
2023-05-24T18:50:50.931Z,101559.03
2023-05-24T18:53:22.753Z,101569.84
2023-05-24T18:55:54.282Z,101562.13
2023-05-24T18:58:25.767Z,101575.81
2023-05-24T19:00:57.379Z,101575.25
2023-05-24T19:03:28.974Z,101581.97
2023-05-24T19:06:00.861Z,101576.91
2023-05-24T19:08:32.390Z,101583.78
2023-05-24T19:11:04.077Z,101579.78
2023-05-24T19:13:35.645Z,101578.78
2023-05-24T19:16:07.348Z,101576.63
2023-05-24T19:18:38.929Z,101587.88
2023-05-24T19:21:10.804Z,101588.53
2023-05-24T19:23:42.424Z,101591.28
2023-05-24T19:26:14.228Z,101600.41
2023-05-24T19:28:45.795Z,101592.63
2023-05-24T19:31:17.709Z,101591.63
2023-05-24T19:34:00.100Z,101606.09
2023-05-24T19:36:32.583Z,101604.91
2023-05-24T19:39:04.094Z,101605.38
2023-05-24T19:41:35.575Z,101612.81
2023-05-24T19:44:07.293Z,101611.19
2023-05-24T19:46:38.836Z,101615.16
2023-05-24T19:49:10.401Z,101611.28
2023-05-24T19:51:41.997Z,101611.91
2023-05-24T19:54:13.660Z,101608.03
2023-05-24T19:56:45.257Z,101618.09
2023-05-24T19:59:17.203Z,101612.19
2023-05-24T20:01:49.233Z,101615.50
2023-05-24T20:04:20.871Z,101612.84
2023-05-24T20:06:52.685Z,101619.84
2023-05-24T20:09:24.179Z,101506.88
2023-05-24T20:11:55.715Z,101618.63
2023-05-24T20:14:27.218Z,101622.94
2023-05-24T20:16:59.152Z,101620.91
2023-05-24T20:19:30.670Z,101626.88
2023-05-24T20:22:02.431Z,101631.19
2023-05-24T20:24:33.927Z,101622.97
2023-05-24T20:27:05.449Z,101627.50
2023-05-24T20:29:36.952Z,101625.03
2023-05-24T20:32:08.677Z,101630.19
2023-05-24T20:34:40.233Z,101624.22
2023-05-24T20:37:11.752Z,101627.91
2023-05-24T20:39:43.604Z,101628.13
2023-05-24T20:42:15.110Z,101625.66
2023-05-24T20:44:47.065Z,101632.03
2023-05-24T20:47:18.572Z,101633.84
2023-05-24T20:49:50.062Z,101637.97
2023-05-24T20:52:21.554Z,101635.69
2023-05-24T20:54:53.236Z,101633.84
2023-05-24T20:57:25.171Z,101636.91
2023-05-24T20:59:56.953Z,101640.81
2023-05-24T21:02:28.875Z,101636.91
2023-05-24T21:05:00.463Z,101643.06
2023-05-24T21:07:32.098Z,101646.56
2023-05-24T21:10:03.589Z,101650.06
2023-05-24T21:12:35.117Z,101652.94
2023-05-24T21:15:06.626Z,101660.28
2023-05-24T21:17:38.185Z,101658.28
2023-05-24T21:20:09.719Z,101655.78
2023-05-24T21:22:41.260Z,101661.53
2023-05-24T21:25:12.781Z,101663.38
2023-05-24T21:27:44.648Z,101667.25
2023-05-24T21:30:16.505Z,101565.66
2023-05-24T21:32:48.483Z,101674.22
2023-05-24T21:35:20.044Z,101666.22
2023-05-24T21:37:51.513Z,101660.47
2023-05-24T21:40:23.252Z,101660.88
2023-05-24T21:42:54.740Z,101665.38
2023-05-24T21:45:26.750Z,101673.78
2023-05-24T21:47:58.311Z,101673.34
2023-05-24T21:50:30.273Z,101676.22
2023-05-24T21:53:01.765Z,101674.97
2023-05-24T21:55:33.580Z,101676.38
2023-05-24T21:58:05.095Z,101680.69
2023-05-24T22:00:36.618Z,101679.84
2023-05-24T22:03:08.561Z,101680.25
2023-05-24T22:05:40.207Z,101679.84
2023-05-24T22:08:12.242Z,101687.22
2023-05-24T22:10:43.751Z,101691.09
2023-05-24T22:13:15.617Z,101688.00
2023-05-24T22:15:47.123Z,101692.91
2023-05-24T22:18:19.014Z,101694.94
2023-05-24T22:20:50.582Z,101696.16
2023-05-24T22:23:22.581Z,101703.53
2023-05-24T22:25:54.057Z,101696.75
2023-05-24T22:28:25.858Z,101698.59
2023-05-24T22:30:57.608Z,101697.31
2023-05-24T22:33:29.428Z,101695.06
2023-05-24T22:36:00.938Z,101697.28
2023-05-24T22:38:32.444Z,101701.75
2023-05-24T22:41:04.264Z,101699.50
2023-05-24T22:43:35.720Z,101703.56
2023-05-24T22:46:10.541Z,101704.78
2023-05-24T22:48:42.257Z,101700.63
2023-05-24T22:51:14.067Z,101708.84
2023-05-24T22:53:45.651Z,101702.69
2023-05-24T22:56:17.445Z,101703.06
2023-05-24T22:58:48.964Z,101697.94
2023-05-24T23:01:20.877Z,101700.59
2023-05-24T23:03:52.607Z,101697.50
2023-05-24T23:06:24.155Z,101697.44
2023-05-24T23:08:55.826Z,101702.69
2023-05-24T23:11:27.305Z,101698.97
2023-05-24T23:13:59.129Z,101703.88
2023-05-24T23:16:30.643Z,101698.72
2023-05-24T23:19:02.187Z,101701.75
2023-05-24T23:21:33.678Z,101702.97
2023-05-24T23:24:05.748Z,101703.34
2023-05-24T23:26:37.257Z,101707.41
2023-05-24T23:29:09.011Z,101703.91
2023-05-24T23:31:40.716Z,101706.97
2023-05-24T23:34:12.251Z,101701.00
2023-05-24T23:36:44.094Z,101703.22
2023-05-24T23:39:15.573Z,101710.97
2023-05-24T23:41:47.515Z,101702.72
2023-05-24T23:44:19.002Z,101705.97
2023-05-24T23:46:50.902Z,101713.31
2023-05-24T23:49:22.494Z,101714.50
2023-05-24T23:51:54.347Z,101720.00
2023-05-24T23:54:25.835Z,101712.41
2023-05-24T23:56:57.668Z,101708.28
2023-05-24T23:59:29.699Z,101712.78
